createdAt,value
2022-09-12T00:00:51.042Z,18.07
2022-09-12T00:03:17.580Z,16.53
2022-09-12T00:05:46.207Z,18.00
2022-09-12T00:08:13.661Z,16.80
2022-09-12T00:10:41.646Z,14.67
2022-09-12T00:13:09.002Z,17.33
2022-09-12T00:15:43.582Z,15.67
2022-09-12T00:18:13.818Z,16.60
2022-09-12T00:20:45.172Z,18.13
2022-09-12T00:23:12.099Z,18.10
2022-09-12T00:25:47.527Z,17.17
2022-09-12T00:28:17.086Z,17.67
2022-09-12T00:30:45.578Z,18.97
2022-09-12T00:33:12.389Z,17.87
2022-09-12T00:35:47.666Z,19.27
2022-09-12T00:38:16.298Z,19.40
2022-09-12T00:40:43.533Z,22.57
2022-09-12T00:43:32.275Z,19.73
2022-09-12T00:46:04.766Z,20.00
2022-09-12T00:48:41.878Z,21.27
2022-09-12T00:51:09.269Z,18.37
2022-09-12T00:53:36.085Z,19.30
2022-09-12T00:56:02.799Z,21.93
2022-09-12T00:58:36.902Z,16.57
2022-09-12T01:01:03.688Z,16.80
2022-09-12T01:03:31.437Z,19.13
2022-09-12T01:06:20.497Z,17.33
2022-09-12T01:08:49.676Z,17.37
2022-09-12T01:11:16.773Z,17.37
2022-09-12T01:13:44.930Z,16.87
2022-09-12T01:16:11.491Z,18.80
2022-09-12T01:18:59.942Z,17.77
2022-09-12T01:21:52.779Z,18.27
2022-09-12T01:24:37.400Z,18.73
2022-09-12T01:27:32.315Z,20.00
2022-09-12T01:30:06.418Z,16.53
2022-09-12T01:32:47.163Z,19.10
2022-09-12T01:35:22.872Z,19.20
2022-09-12T01:38:24.786Z,19.10
2022-09-12T01:40:54.409Z,20.27
2022-09-12T01:43:41.928Z,21.87
2022-09-12T01:46:21.327Z,19.13
2022-09-12T01:48:56.934Z,18.73
2022-09-12T01:51:30.143Z,18.20
2022-09-12T01:54:20.811Z,17.77
2022-09-12T01:56:51.639Z,17.20
2022-09-12T01:59:27.473Z,17.37
2022-09-12T02:02:02.015Z,18.70
2022-09-12T02:04:40.007Z,14.80
2022-09-12T02:07:14.299Z,15.57
2022-09-12T02:09:59.621Z,15.50
2022-09-12T02:12:33.852Z,16.50
2022-09-12T02:15:07.158Z,16.33
2022-09-12T02:17:39.038Z,16.63
2022-09-12T02:20:21.349Z,16.03
2022-09-12T02:23:00.566Z,13.77
2022-09-12T02:25:30.346Z,14.97
2022-09-12T02:28:05.783Z,16.07
2022-09-12T02:30:43.215Z,17.07
2022-09-12T02:33:26.611Z,15.40
2022-09-12T02:36:03.879Z,15.23
2022-09-12T02:38:42.193Z,15.97
2022-09-12T02:41:09.064Z,12.93
2022-09-12T02:43:37.839Z,15.83
2022-09-12T02:46:09.156Z,16.30
2022-09-12T02:48:41.629Z,15.57
2022-09-12T02:51:08.478Z,15.37
2022-09-12T02:53:36.344Z,13.20
2022-09-12T02:56:08.018Z,15.80
2022-09-12T02:58:34.571Z,14.03
2022-09-12T03:01:10.163Z,14.83
2022-09-12T03:03:50.913Z,13.60
2022-09-12T03:06:39.870Z,12.93
2022-09-12T03:09:36.615Z,13.47
2022-09-12T03:12:21.663Z,11.13
2022-09-12T03:15:04.102Z,12.70
2022-09-12T03:17:52.389Z,12.87
2022-09-12T03:20:49.135Z,13.70
2022-09-12T03:23:33.155Z,15.50
2022-09-12T03:26:06.354Z,14.90
2022-09-12T03:28:35.356Z,13.83
2022-09-12T03:31:15.102Z,15.67
2022-09-12T03:33:41.919Z,13.90
2022-09-12T03:36:24.576Z,14.60
2022-09-12T03:38:52.340Z,13.20
2022-09-12T03:41:19.297Z,13.80
2022-09-12T03:43:46.122Z,12.17
2022-09-12T03:46:13.531Z,12.63
2022-09-12T03:48:40.877Z,13.97
2022-09-12T03:51:10.162Z,14.87
2022-09-12T03:53:37.154Z,14.60
2022-09-12T03:56:11.403Z,13.70
2022-09-12T03:58:38.621Z,14.80
2022-09-12T04:01:12.966Z,14.77
2022-09-12T04:03:40.900Z,15.57
2022-09-12T04:06:09.090Z,13.50
2022-09-12T04:08:36.283Z,14.47
2022-09-12T04:11:09.761Z,16.17
2022-09-12T04:13:37.541Z,13.13
2022-09-12T04:16:04.974Z,17.43
2022-09-12T04:18:31.835Z,16.47
2022-09-12T04:20:58.357Z,14.80
2022-09-12T04:23:25.113Z,16.07
2022-09-12T04:26:00.324Z,17.67
2022-09-12T04:28:29.188Z,12.97
2022-09-12T04:30:56.813Z,19.10
2022-09-12T04:33:23.389Z,15.67
2022-09-12T04:35:50.546Z,16.53
2022-09-12T04:38:16.964Z,17.10
2022-09-12T04:40:43.390Z,15.20
2022-09-12T04:43:14.300Z,15.43
2022-09-12T04:45:41.221Z,15.80
2022-09-12T04:48:07.621Z,17.67
2022-09-12T04:50:34.263Z,18.00
2022-09-12T04:53:00.718Z,16.90
2022-09-12T04:55:28.275Z,17.83
2022-09-12T04:57:54.657Z,15.03
2022-09-12T05:00:21.222Z,17.53
2022-09-12T05:02:47.819Z,16.63
2022-09-12T05:05:14.479Z,16.97
2022-09-12T05:07:40.872Z,14.63
2022-09-12T05:10:08.029Z,17.73
2022-09-12T05:12:34.625Z,18.57
2022-09-12T05:15:03.253Z,19.90
2022-09-12T05:17:30.119Z,15.93
2022-09-12T05:19:56.764Z,17.33
2022-09-12T05:22:23.129Z,19.20
2022-09-12T05:24:50.666Z,19.70
2022-09-12T05:27:17.453Z,19.43
2022-09-12T05:29:43.878Z,21.10
2022-09-12T05:32:10.322Z,18.37
2022-09-12T05:34:37.887Z,19.03
2022-09-12T05:37:04.406Z,20.77
2022-09-12T05:39:30.955Z,19.07
2022-09-12T05:41:57.544Z,18.97
2022-09-12T05:44:24.819Z,18.57
2022-09-12T05:46:53.627Z,19.70
2022-09-12T05:49:21.411Z,17.90
2022-09-12T05:51:48.376Z,18.13
2022-09-12T05:54:17.731Z,18.70
2022-09-12T05:56:44.899Z,18.63
2022-09-12T05:59:17.288Z,18.50
2022-09-12T06:01:44.746Z,18.47
2022-09-12T06:04:12.038Z,19.17
2022-09-12T06:06:41.723Z,15.53
2022-09-12T06:09:09.101Z,16.87
2022-09-12T06:11:37.307Z,16.63
2022-09-12T06:14:04.423Z,18.23
2022-09-12T06:16:32.809Z,18.77
2022-09-12T06:19:02.009Z,18.97
2022-09-12T06:21:31.400Z,17.93
2022-09-12T06:24:02.088Z,20.20
2022-09-12T06:26:29.277Z,20.17
2022-09-12T06:28:57.470Z,17.40
2022-09-12T06:31:27.193Z,19.23
2022-09-12T06:33:54.911Z,16.90
2022-09-12T06:36:28.692Z,18.87
2022-09-12T06:38:57.696Z,19.83
2022-09-12T06:41:25.563Z,18.87
2022-09-12T06:43:53.114Z,18.23
2022-09-12T06:46:19.649Z,18.77
2022-09-12T06:48:46.640Z,18.43
2022-09-12T06:51:15.716Z,19.63
2022-09-12T06:53:44.215Z,20.67
2022-09-12T06:56:19.195Z,21.43
2022-09-12T06:58:47.327Z,21.27
2022-09-12T07:01:16.554Z,21.60
2022-09-12T07:03:47.784Z,21.07
2022-09-12T07:06:16.648Z,16.63
2022-09-12T07:08:43.197Z,19.67
2022-09-12T07:11:14.891Z,20.83
2022-09-12T07:13:42.903Z,20.27
2022-09-12T07:16:10.652Z,21.27
2022-09-12T07:18:38.500Z,17.10
2022-09-12T07:21:07.741Z,17.67
2022-09-12T07:23:34.405Z,20.47
2022-09-12T07:26:03.308Z,19.87
2022-09-12T07:28:32.727Z,19.53
2022-09-12T07:31:24.691Z,19.23
2022-09-12T07:33:54.596Z,17.50
2022-09-12T07:36:25.263Z,17.33
2022-09-12T07:38:57.538Z,18.50
2022-09-12T07:41:30.156Z,18.93
2022-09-12T07:43:59.493Z,20.97
2022-09-12T07:46:29.568Z,19.27
2022-09-12T07:48:58.012Z,20.73
2022-09-12T07:51:25.642Z,17.90
2022-09-12T07:53:52.440Z,19.60
2022-09-12T07:56:19.885Z,20.07
2022-09-12T07:58:47.160Z,19.23
2022-09-12T08:01:19.162Z,23.63
2022-09-12T08:03:49.348Z,21.30
2022-09-12T08:06:21.545Z,17.63
2022-09-12T08:08:48.744Z,23.00
2022-09-12T08:11:17.371Z,21.77
2022-09-12T08:13:45.261Z,23.00
2022-09-12T08:16:20.960Z,19.57
2022-09-12T08:18:48.543Z,22.23
2022-09-12T08:21:29.331Z,20.77
2022-09-12T08:24:02.072Z,19.80
2022-09-12T08:26:28.992Z,20.90
2022-09-12T08:28:55.815Z,18.40
2022-09-12T08:31:24.714Z,18.33
2022-09-12T08:33:51.854Z,16.20
2022-09-12T08:36:21.319Z,20.10
2022-09-12T08:38:50.469Z,15.37
2022-09-12T08:41:28.118Z,13.17
2022-09-12T08:44:04.431Z,17.57
2022-09-12T08:46:50.420Z,17.20
2022-09-12T08:49:27.717Z,13.33
2022-09-12T08:51:56.233Z,15.57
2022-09-12T08:54:28.772Z,13.43
2022-09-12T08:57:05.277Z,13.83
2022-09-12T08:59:41.519Z,12.40
2022-09-12T09:02:40.121Z,12.73
2022-09-12T09:05:44.539Z,11.23
2022-09-12T09:08:36.024Z,11.07
2022-09-12T09:11:06.241Z,12.63
2022-09-12T09:14:09.679Z,12.23
2022-09-12T09:16:44.882Z,12.23
2022-09-12T09:19:18.686Z,12.53
2022-09-12T09:21:49.408Z,11.77
2022-09-12T09:24:19.508Z,11.90
2022-09-12T09:27:02.922Z,9.93
2022-09-12T09:29:49.436Z,10.27
2022-09-12T09:32:31.829Z,9.03
2022-09-12T09:34:58.896Z,10.27
2022-09-12T09:37:39.528Z,10.73
2022-09-12T09:40:23.819Z,9.73
2022-09-12T09:43:19.706Z,9.13
2022-09-12T09:45:47.909Z,10.00
2022-09-12T09:48:19.315Z,8.70
2022-09-12T09:50:49.413Z,7.87
2022-09-12T09:53:41.686Z,9.33
2022-09-12T09:56:31.106Z,7.90
2022-09-12T09:58:57.951Z,7.57
2022-09-12T10:01:26.939Z,7.77
2022-09-12T10:03:59.891Z,8.43
2022-09-12T10:06:32.613Z,6.20
2022-09-12T10:09:33.000Z,5.30
2022-09-12T10:12:19.145Z,5.80
2022-09-12T10:14:57.843Z,8.70
2022-09-12T10:17:34.098Z,7.43
2022-09-12T10:20:20.409Z,6.40
2022-09-12T10:22:49.777Z,7.20
2022-09-12T10:25:18.363Z,6.40
2022-09-12T10:27:44.800Z,6.13
2022-09-12T10:30:19.623Z,5.27
2022-09-12T10:32:53.993Z,6.30
2022-09-12T10:35:23.449Z,6.20
2022-09-12T10:38:24.455Z,5.23
2022-09-12T10:41:04.757Z,7.17
2022-09-12T10:43:35.876Z,4.67
2022-09-12T10:46:14.822Z,7.13
2022-09-12T10:48:42.976Z,4.83
2022-09-12T10:51:24.640Z,4.67
2022-09-12T10:53:54.710Z,4.33
2022-09-12T10:56:33.654Z,4.80
2022-09-12T10:59:19.927Z,4.70
2022-09-12T11:02:00.579Z,5.60
2022-09-12T11:04:31.039Z,5.90
2022-09-12T11:07:22.555Z,4.93
2022-09-12T11:10:18.173Z,4.30
2022-09-12T11:12:50.624Z,5.20
2022-09-12T11:15:31.938Z,4.43
2022-09-12T11:18:18.643Z,4.10
2022-09-12T11:21:03.357Z,4.33
2022-09-12T11:24:08.959Z,4.00
2022-09-12T11:26:50.713Z,5.23
2022-09-12T11:29:31.700Z,5.03
2022-09-12T11:32:30.962Z,4.43
2022-09-12T11:35:27.551Z,5.43
2022-09-12T11:38:25.390Z,4.03
2022-09-12T11:40:59.003Z,5.30
2022-09-12T11:43:34.585Z,4.50
2022-09-12T11:46:25.003Z,4.20
2022-09-12T11:49:03.717Z,4.70
2022-09-12T11:51:56.370Z,5.20
2022-09-12T11:54:41.579Z,3.83
2022-09-12T11:57:15.987Z,4.00
2022-09-12T11:59:51.740Z,4.00
2022-09-12T12:02:26.073Z,3.73
2022-09-12T12:05:02.915Z,3.53
2022-09-12T12:07:41.162Z,5.03
2022-09-12T12:10:32.902Z,4.23
2022-09-12T12:13:02.842Z,3.93
2022-09-12T12:15:55.414Z,4.07
2022-09-12T12:18:27.818Z,4.10
2022-09-12T12:20:55.935Z,4.03
2022-09-12T12:23:34.060Z,3.97
2022-09-12T12:26:03.479Z,4.17
2022-09-12T12:28:53.339Z,4.20
2022-09-12T12:31:19.936Z,3.73
2022-09-12T12:33:46.398Z,4.80
2022-09-12T12:36:34.034Z,3.37
2022-09-12T12:39:33.140Z,3.80
2022-09-12T12:42:03.717Z,4.80
2022-09-12T12:44:45.203Z,4.87
2022-09-12T12:47:20.098Z,5.07
2022-09-12T12:49:57.409Z,4.80
2022-09-12T12:52:27.955Z,5.13
2022-09-12T12:54:57.713Z,4.63
2022-09-12T12:57:46.394Z,5.20
2022-09-12T13:00:25.115Z,4.37
2022-09-12T13:02:58.139Z,4.67
2022-09-12T13:05:27.475Z,5.03
2022-09-12T13:08:04.653Z,4.37
2022-09-12T13:10:32.095Z,6.10
2022-09-12T13:13:05.138Z,5.83
2022-09-12T13:15:37.801Z,3.93
2022-09-12T13:18:09.321Z,3.23
2022-09-12T13:21:09.936Z,3.60
2022-09-12T13:23:36.664Z,3.70
2022-09-12T13:26:10.402Z,4.07
2022-09-12T13:28:37.138Z,5.53
2022-09-12T13:31:10.761Z,4.33
2022-09-12T13:33:46.540Z,12.37
2022-09-12T13:36:38.101Z,21.20
2022-09-12T13:39:04.791Z,5.30
2022-09-12T13:41:56.121Z,4.07
2022-09-12T13:44:24.485Z,3.80
2022-09-12T13:46:52.378Z,4.30
2022-09-12T13:49:37.166Z,4.13
2022-09-12T13:52:17.991Z,3.10
2022-09-12T13:54:48.761Z,3.87
2022-09-12T13:57:41.260Z,3.60
2022-09-12T14:00:19.978Z,4.23
2022-09-12T14:02:48.615Z,3.67
2022-09-12T14:05:24.673Z,3.10
2022-09-12T14:07:54.958Z,4.40
2022-09-12T14:10:31.101Z,4.70
2022-09-12T14:13:01.154Z,4.47
2022-09-12T14:15:31.448Z,3.30
2022-09-12T14:18:02.130Z,3.33
2022-09-12T14:20:32.529Z,3.47
2022-09-12T14:23:14.863Z,3.40
2022-09-12T14:25:47.914Z,3.40
2022-09-12T14:28:22.776Z,4.50
2022-09-12T14:31:29.677Z,3.73
2022-09-12T14:34:09.618Z,3.60
2022-09-12T14:36:57.423Z,3.87
2022-09-12T14:39:41.119Z,3.23
2022-09-12T14:42:15.427Z,2.63
2022-09-12T14:44:55.832Z,3.70
2022-09-12T14:47:26.537Z,2.73
2022-09-12T14:49:53.305Z,4.00
2022-09-12T14:52:33.286Z,4.27
2022-09-12T14:55:16.641Z,3.87
2022-09-12T14:57:44.495Z,3.40
2022-09-12T15:00:20.294Z,4.20
2022-09-12T15:02:49.710Z,4.23
2022-09-12T15:05:23.028Z,3.30
2022-09-12T15:07:57.308Z,3.10
2022-09-12T15:10:28.272Z,3.03
2022-09-12T15:13:09.705Z,4.83
2022-09-12T15:15:37.796Z,3.30
2022-09-12T15:18:07.065Z,3.77
2022-09-12T15:20:37.129Z,3.83
2022-09-12T15:23:04.181Z,3.13
2022-09-12T15:25:31.461Z,2.87
2022-09-12T15:27:57.905Z,3.13
2022-09-12T15:30:24.328Z,2.77
2022-09-12T15:32:54.898Z,3.40
2022-09-12T15:35:25.485Z,2.80
2022-09-12T15:37:52.350Z,3.30
2022-09-12T15:40:18.981Z,3.47
2022-09-12T15:42:45.628Z,3.70
2022-09-12T15:45:18.755Z,3.00
2022-09-12T15:47:45.586Z,3.50
2022-09-12T15:50:12.074Z,2.60
2022-09-12T15:52:39.239Z,3.07
2022-09-12T15:55:12.438Z,2.90
2022-09-12T15:57:40.366Z,3.00
2022-09-12T16:00:07.951Z,2.90
2022-09-12T16:02:38.471Z,8.67
2022-09-12T16:05:06.133Z,3.03
2022-09-12T16:07:32.825Z,5.70
2022-09-12T16:10:00.508Z,4.30
2022-09-12T16:12:27.495Z,4.07
2022-09-12T16:14:53.938Z,2.97
2022-09-12T16:17:20.448Z,3.10
2022-09-12T16:19:46.932Z,3.47
2022-09-12T16:22:13.447Z,3.57
2022-09-12T16:24:40.209Z,3.87
2022-09-12T16:27:06.889Z,3.40
2022-09-12T16:29:33.589Z,4.63
2022-09-12T16:32:00.750Z,4.90
2022-09-12T16:34:27.413Z,4.43
2022-09-12T16:36:53.848Z,3.57
2022-09-12T16:39:20.434Z,3.43
2022-09-12T16:41:46.990Z,4.07
2022-09-12T16:44:13.629Z,3.10
2022-09-12T16:46:40.059Z,3.80
2022-09-12T16:49:07.055Z,4.13
2022-09-12T16:51:37.568Z,4.17
2022-09-12T16:54:04.997Z,3.93
2022-09-12T16:56:56.785Z,6.60
2022-09-12T16:59:23.190Z,3.70
2022-09-12T17:01:50.028Z,3.20
2022-09-12T17:04:18.055Z,3.93
2022-09-12T17:06:47.182Z,3.20
2022-09-12T17:09:18.750Z,3.83
2022-09-12T17:11:50.690Z,3.10
2022-09-12T17:14:17.338Z,3.90
2022-09-12T17:16:51.506Z,3.60
2022-09-12T17:19:29.537Z,4.20
2022-09-12T17:21:57.269Z,4.90
2022-09-12T17:24:24.203Z,5.73
2022-09-12T17:26:51.699Z,8.03
2022-09-12T17:29:18.262Z,4.90
2022-09-12T17:31:45.231Z,5.43
2022-09-12T17:34:16.212Z,4.10
2022-09-12T17:36:48.849Z,5.17
2022-09-12T17:39:15.692Z,5.87
2022-09-12T17:41:42.850Z,4.83
2022-09-12T17:44:12.418Z,6.07
2022-09-12T17:46:40.007Z,3.43
2022-09-12T17:49:18.551Z,4.27
2022-09-12T17:51:45.330Z,4.17
2022-09-12T17:54:16.086Z,3.83
2022-09-12T17:56:44.258Z,6.00
2022-09-12T17:59:14.310Z,6.77
2022-09-12T18:02:04.615Z,8.80
2022-09-12T18:04:31.540Z,7.47
2022-09-12T18:07:00.268Z,7.17
2022-09-12T18:09:27.903Z,6.00
2022-09-12T18:11:54.702Z,5.83
2022-09-12T18:14:21.530Z,4.73
2022-09-12T18:16:49.664Z,3.70
2022-09-12T18:19:16.626Z,5.63
2022-09-12T18:21:43.192Z,3.73
2022-09-12T18:24:10.623Z,3.80
2022-09-12T18:26:37.075Z,4.70
2022-09-12T18:29:03.986Z,4.40
2022-09-12T18:31:34.302Z,4.43
2022-09-12T18:34:02.451Z,6.40
2022-09-12T18:36:30.287Z,4.67
2022-09-12T18:38:58.566Z,4.57
2022-09-12T18:41:26.359Z,6.73
2022-09-12T18:43:58.018Z,5.40
2022-09-12T18:46:25.328Z,4.47
2022-09-12T18:48:52.298Z,5.13
2022-09-12T18:51:21.118Z,4.87
2022-09-12T18:53:56.230Z,4.00
2022-09-12T18:56:28.647Z,3.80
2022-09-12T18:58:56.594Z,4.13
2022-09-12T19:01:25.448Z,3.70
2022-09-12T19:03:53.171Z,3.70
2022-09-12T19:06:28.287Z,5.13
2022-09-12T19:08:55.958Z,5.63
2022-09-12T19:11:24.090Z,4.73
2022-09-12T19:13:52.316Z,5.77
2022-09-12T19:16:22.082Z,8.33
2022-09-12T19:18:49.760Z,6.00
2022-09-12T19:21:19.210Z,5.20
2022-09-12T19:23:46.295Z,8.70
2022-09-12T19:26:14.275Z,6.13
2022-09-12T19:28:40.802Z,9.17
2022-09-12T19:31:09.356Z,6.20
2022-09-12T19:33:35.968Z,6.03
2022-09-12T19:36:13.866Z,5.17
2022-09-12T19:38:54.954Z,5.23
2022-09-12T19:41:21.668Z,5.60
2022-09-12T19:43:50.256Z,4.70
2022-09-12T19:46:18.491Z,5.23
2022-09-12T19:48:45.709Z,4.43
2022-09-12T19:51:12.867Z,4.70
2022-09-12T19:53:39.503Z,5.27
2022-09-12T19:56:06.063Z,4.33
2022-09-12T19:58:38.150Z,6.73
2022-09-12T20:01:10.380Z,4.07
2022-09-12T20:03:37.219Z,4.43
2022-09-12T20:06:05.745Z,4.50
2022-09-12T20:08:33.803Z,5.03
2022-09-12T20:11:00.941Z,4.20
2022-09-12T20:13:28.133Z,5.90
2022-09-12T20:15:54.649Z,5.03
2022-09-12T20:18:21.223Z,5.10
2022-09-12T20:20:47.899Z,4.90
2022-09-12T20:23:14.527Z,5.17
2022-09-12T20:25:40.999Z,6.07
2022-09-12T20:28:07.738Z,6.13
2022-09-12T20:30:34.394Z,5.67
2022-09-12T20:33:01.898Z,7.73
2022-09-12T20:35:28.395Z,5.30
2022-09-12T20:37:54.813Z,5.93
2022-09-12T20:40:21.383Z,6.73
2022-09-12T20:42:48.301Z,5.93
2022-09-12T20:45:15.167Z,5.43
2022-09-12T20:47:41.605Z,8.03
2022-09-12T20:50:08.464Z,6.60
2022-09-12T20:52:35.295Z,7.23
2022-09-12T20:55:05.343Z,7.20
2022-09-12T20:57:31.815Z,6.30
2022-09-12T20:59:58.720Z,5.97
2022-09-12T21:02:25.243Z,6.10
2022-09-12T21:04:52.349Z,6.40
2022-09-12T21:07:18.760Z,6.73
2022-09-12T21:09:45.272Z,6.50
2022-09-12T21:12:11.673Z,5.63
2022-09-12T21:14:38.106Z,7.23
2022-09-12T21:17:05.318Z,6.17
2022-09-12T21:19:31.927Z,7.40
2022-09-12T21:21:58.552Z,5.77
2022-09-12T21:24:24.949Z,6.80
2022-09-12T21:26:51.432Z,5.47
2022-09-12T21:29:17.854Z,6.60
2022-09-12T21:31:44.585Z,5.60
2022-09-12T21:34:11.049Z,8.37
2022-09-12T21:36:38.145Z,6.20
2022-09-12T21:39:05.269Z,6.33
2022-09-12T21:41:35.416Z,5.83
2022-09-12T21:44:02.864Z,7.03
2022-09-12T21:46:29.300Z,7.00
2022-09-12T21:48:55.791Z,5.40
2022-09-12T21:51:22.297Z,6.47
2022-09-12T21:53:49.177Z,5.43
2022-09-12T21:56:16.007Z,5.80
2022-09-12T21:58:42.419Z,5.97
2022-09-12T22:01:12.227Z,6.70
2022-09-12T22:03:38.866Z,5.93
2022-09-12T22:06:06.690Z,8.07
2022-09-12T22:08:34.742Z,6.90
2022-09-12T22:11:04.501Z,5.87
2022-09-12T22:13:32.310Z,7.00
2022-09-12T22:16:00.366Z,5.63
2022-09-12T22:18:26.909Z,6.77
2022-09-12T22:21:24.350Z,7.33
2022-09-12T22:24:09.961Z,7.20
2022-09-12T22:26:44.592Z,7.40
2022-09-12T22:29:13.170Z,6.70
2022-09-12T22:31:39.964Z,6.93
2022-09-12T22:34:06.660Z,6.63
2022-09-12T22:36:38.175Z,6.30
2022-09-12T22:39:06.059Z,5.93
2022-09-12T22:41:32.855Z,5.97
2022-09-12T22:43:59.763Z,7.07
2022-09-12T22:46:27.546Z,6.10
2022-09-12T22:48:55.601Z,6.77
2022-09-12T22:51:22.025Z,7.90
2022-09-12T22:53:49.357Z,6.67
2022-09-12T22:56:16.119Z,7.10
2022-09-12T22:58:43.457Z,8.27
2022-09-12T23:01:10.495Z,7.00
2022-09-12T23:03:37.152Z,6.40
2022-09-12T23:06:05.516Z,7.27
2022-09-12T23:08:35.681Z,6.93
2022-09-12T23:11:09.348Z,6.60
2022-09-12T23:13:37.073Z,6.90
2022-09-12T23:16:06.149Z,6.60
2022-09-12T23:18:36.449Z,6.43
2022-09-12T23:21:09.167Z,8.27
2022-09-12T23:23:35.927Z,8.43
2022-09-12T23:26:02.895Z,6.73
2022-09-12T23:28:30.547Z,6.03
2022-09-12T23:30:57.396Z,9.23
2022-09-12T23:33:23.915Z,7.10
2022-09-12T23:35:50.983Z,7.30
2022-09-12T23:38:17.542Z,7.17
2022-09-12T23:40:43.905Z,7.63
2022-09-12T23:43:10.347Z,7.10
2022-09-12T23:45:37.011Z,8.33
2022-09-12T23:48:04.119Z,8.33
2022-09-12T23:50:30.703Z,6.33
2022-09-12T23:52:57.135Z,6.03
2022-09-12T23:55:24.470Z,7.50
2022-09-12T23:57:51.145Z,7.63
